Etusivu
METAR-TAF:

METAR-TAF

Lentoasemat :

Sindal, Tanska

Leveyspiiri: 57-30N, Pituuspiiri: 010-13E, korkeus merenpinnasta: 28 m

Tämänhetkinen sää

Tämä raportti tehtiin 10 tuntia ja 19 minuuttia sitten, kello 13.50 UTC
Tuuli 7 kn idästä
Lämpötila 18°C
Kosteus 59%
Ilmanpaine 1007 hPa
Näkyvyys 10 km tai enemmän
Muutamia pilviä 2500 ft:n korkeudessa
Hajonneita pilviä 10000 ft:n korkeudessa

METAR: EKSN 281350Z 10007KT 9999 FEW025 BKN100 18/10 Q1007

Aika: 02:09 (00:09 UTC)

Sääennuste

Tämä raportti tehtiin 15 tuntia ja 29 minuuttia sitten, kello 08.40 UTC
Ennuste voimassa 28. päivästä klo 09 UTC - 28. päivään klo 15 UTC
Tuuli 12 kn idästä
Näkyvyys 10 km tai enemmän
Hajanaisia pilviä 2000 ft:n korkeudessa

TAF: EKSN 280840Z 2809/2815 09012KT 9999 SCT020

Säähavainnot ja -ennusteet yli 4000 lentoasemalta (METAR- ja TAF-raportit).

Käytössä olevat sääasemat on merkitty karttaan keltaisilla ja punaisilla pisteillä.

Aseta hiiri pisteen päälle nähdäksesi sääaseman nimen.

Klikkaa sitten nähdäksesi säähavainnot ja -ennusteet.

Kartan vaihtaminen: klikkaa mustalla rastilla varustettuja vihreitä pisteitä, niin voit zoomata sisään; viivalla varustettua vihreää pistettä, niin voit zoomata ulos tai vihreitä nuolia, niin pääset viereisille kartoille.


METAR-TAF: